createdAt,value
2023-02-14T00:00:30.425Z,203.40
2023-02-14T00:02:57.329Z,220.33
2023-02-14T00:05:24.065Z,386.87
2023-02-14T00:07:50.764Z,386.13
2023-02-14T00:10:18.207Z,469.47
2023-02-14T00:12:44.943Z,544.07
2023-02-14T00:15:23.863Z,394.80
2023-02-14T00:17:51.741Z,468.30
2023-02-14T00:20:18.679Z,370.87
2023-02-14T00:22:45.306Z,455.80
2023-02-14T00:25:12.301Z,312.63
2023-02-14T00:27:39.055Z,313.63
2023-02-14T00:30:07.616Z,302.60
2023-02-14T00:32:34.331Z,383.80
2023-02-14T00:35:01.770Z,281.20
2023-02-14T00:37:28.420Z,245.73
2023-02-14T00:39:55.056Z,190.07
2023-02-14T00:42:21.699Z,260.23
2023-02-14T00:44:48.375Z,200.97
2023-02-14T00:47:15.031Z,238.10
2023-02-14T00:49:41.711Z,249.67
2023-02-14T00:52:08.456Z,181.07
2023-02-14T00:54:35.146Z,234.30
2023-02-14T00:57:01.807Z,289.00
2023-02-14T00:59:28.436Z,242.97
2023-02-14T01:01:55.101Z,365.97
2023-02-14T01:04:21.769Z,273.40
2023-02-14T01:06:48.414Z,260.83
2023-02-14T01:09:15.165Z,183.47
2023-02-14T01:11:41.846Z,190.57
2023-02-14T01:14:08.565Z,152.93
2023-02-14T01:16:36.675Z,263.47
2023-02-14T01:19:03.498Z,128.60
2023-02-14T01:21:33.003Z,198.63
2023-02-14T01:24:03.294Z,206.00
2023-02-14T01:26:30.621Z,217.07
2023-02-14T01:28:57.734Z,166.33
2023-02-14T01:31:27.081Z,168.90
2023-02-14T01:33:54.561Z,258.17
2023-02-14T01:36:38.684Z,197.90
2023-02-14T01:39:07.897Z,338.43
2023-02-14T01:41:37.139Z,275.93
2023-02-14T01:44:15.741Z,206.93
2023-02-14T01:46:43.818Z,169.30
2023-02-14T01:49:27.140Z,155.97
2023-02-14T01:52:03.645Z,117.53
2023-02-14T01:54:33.325Z,244.87
2023-02-14T01:57:04.708Z,281.03
2023-02-14T01:59:38.713Z,130.70
2023-02-14T02:02:05.994Z,191.10
2023-02-14T02:04:37.948Z,198.97
2023-02-14T02:07:10.151Z,244.47
2023-02-14T02:09:59.826Z,223.17
2023-02-14T02:12:29.781Z,205.97
2023-02-14T02:14:58.934Z,250.33
2023-02-14T02:17:54.246Z,142.57
2023-02-14T02:20:38.779Z,225.87
2023-02-14T02:23:19.939Z,339.17
2023-02-14T02:26:23.975Z,254.43
2023-02-14T02:29:15.350Z,217.70
2023-02-14T02:32:03.827Z,214.03
2023-02-14T02:35:08.216Z,191.73
2023-02-14T02:37:34.819Z,225.37
2023-02-14T02:40:36.380Z,164.13
2023-02-14T02:43:17.041Z,247.33
2023-02-14T02:46:25.161Z,318.73
2023-02-14T02:49:49.646Z,279.20
2023-02-14T02:53:04.016Z,167.60
2023-02-14T02:56:09.005Z,178.93
2023-02-14T02:58:41.160Z,272.13
2023-02-14T03:01:12.454Z,228.90
2023-02-14T03:04:00.129Z,159.83
2023-02-14T03:06:26.849Z,159.27
2023-02-14T03:08:53.496Z,276.03
2023-02-14T03:11:20.320Z,215.80
2023-02-14T03:14:30.744Z,172.13
2023-02-14T03:17:26.415Z,234.93
2023-02-14T03:20:16.569Z,216.50
2023-02-14T03:23:09.499Z,213.63
2023-02-14T03:25:45.182Z,322.73
2023-02-14T03:28:28.749Z,247.23
2023-02-14T03:31:08.398Z,282.43
2023-02-14T03:33:46.676Z,356.97
2023-02-14T03:36:24.497Z,473.47
2023-02-14T03:38:55.728Z,244.87
2023-02-14T03:41:27.343Z,396.93
2023-02-14T03:43:59.162Z,435.40
2023-02-14T03:46:28.396Z,226.67
2023-02-14T03:48:58.263Z,345.47
2023-02-14T03:51:26.965Z,280.53
2023-02-14T03:53:57.530Z,224.27
2023-02-14T03:56:32.151Z,205.37
2023-02-14T03:59:06.282Z,301.33
2023-02-14T04:01:42.127Z,350.60
2023-02-14T04:04:09.809Z,190.77
2023-02-14T04:06:36.499Z,251.80
2023-02-14T04:09:03.510Z,379.73
2023-02-14T04:11:35.007Z,304.70
2023-02-14T04:14:02.710Z,240.00
2023-02-14T04:16:29.416Z,209.47
2023-02-14T04:19:14.523Z,187.77
2023-02-14T04:21:41.180Z,121.77
2023-02-14T04:24:08.398Z,157.70
2023-02-14T04:26:35.034Z,153.73
2023-02-14T04:29:01.786Z,188.63
2023-02-14T04:31:28.455Z,207.07
2023-02-14T04:33:55.752Z,166.83
2023-02-14T04:36:22.478Z,116.60
2023-02-14T04:38:49.152Z,157.17
2023-02-14T04:41:15.836Z,115.90
2023-02-14T04:43:42.518Z,139.03
2023-02-14T04:46:09.282Z,160.67
2023-02-14T04:48:35.952Z,162.63
2023-02-14T04:51:02.868Z,184.53
2023-02-14T04:53:29.535Z,182.30
2023-02-14T04:55:56.176Z,192.90
2023-02-14T04:58:22.806Z,111.93
2023-02-14T05:00:49.496Z,225.03
2023-02-14T05:03:16.152Z,104.90
2023-02-14T05:05:42.820Z,167.93
2023-02-14T05:08:09.587Z,164.07
2023-02-14T05:10:36.278Z,203.23
2023-02-14T05:13:02.934Z,127.43
2023-02-14T05:15:29.581Z,169.93
2023-02-14T05:17:56.233Z,158.67
2023-02-14T05:20:22.859Z,180.43
2023-02-14T05:22:49.535Z,139.10
2023-02-14T05:25:16.194Z,151.77
2023-02-14T05:27:42.835Z,114.60
2023-02-14T05:30:10.327Z,147.20
2023-02-14T05:32:37.094Z,141.27
2023-02-14T05:35:04.610Z,150.97
2023-02-14T05:37:31.341Z,109.07
2023-02-14T05:39:57.974Z,137.40
2023-02-14T05:42:24.629Z,133.07
2023-02-14T05:44:51.299Z,124.30
2023-02-14T05:47:17.950Z,121.60
2023-02-14T05:49:44.649Z,118.43
2023-02-14T05:52:11.305Z,86.83
2023-02-14T05:54:37.997Z,90.57
2023-02-14T05:57:04.742Z,103.43
2023-02-14T05:59:31.363Z,131.93
2023-02-14T06:01:58.028Z,97.97
2023-02-14T06:04:24.871Z,139.40
2023-02-14T06:06:51.514Z,110.07
2023-02-14T06:09:19.751Z,107.37
2023-02-14T06:11:46.399Z,121.33
2023-02-14T06:14:13.036Z,136.53
2023-02-14T06:16:39.726Z,173.90
2023-02-14T06:19:06.466Z,176.70
2023-02-14T06:21:33.093Z,158.93
2023-02-14T06:23:59.781Z,256.63
2023-02-14T06:26:27.978Z,262.10
2023-02-14T06:28:55.516Z,127.23
2023-02-14T06:31:22.581Z,158.30
2023-02-14T06:33:49.265Z,201.37
2023-02-14T06:36:16.468Z,216.67
2023-02-14T06:38:43.248Z,115.27
2023-02-14T06:41:11.063Z,119.50
2023-02-14T06:43:37.965Z,118.30
2023-02-14T06:46:04.814Z,129.20
2023-02-14T06:48:31.582Z,181.90
2023-02-14T06:50:58.717Z,99.57
2023-02-14T06:53:25.525Z,87.40
2023-02-14T06:55:52.198Z,96.33
2023-02-14T06:58:19.032Z,88.27
2023-02-14T07:00:46.531Z,74.80
2023-02-14T07:03:14.103Z,59.93
2023-02-14T07:05:40.817Z,68.60
2023-02-14T07:08:08.186Z,61.43
2023-02-14T07:10:35.119Z,46.67
2023-02-14T07:13:02.002Z,56.60
2023-02-14T07:15:28.700Z,54.90
2023-02-14T07:17:55.536Z,55.73
2023-02-14T07:20:22.197Z,57.60
2023-02-14T07:22:48.867Z,54.37
2023-02-14T07:25:15.521Z,50.13
2023-02-14T07:27:42.355Z,59.03
2023-02-14T07:30:09.899Z,56.00
2023-02-14T07:32:40.346Z,59.13
2023-02-14T07:35:08.392Z,56.83
2023-02-14T07:37:35.986Z,53.27
2023-02-14T07:40:02.801Z,55.03
2023-02-14T07:42:29.475Z,55.63
2023-02-14T07:44:56.106Z,56.53
2023-02-14T07:47:22.774Z,57.37
2023-02-14T07:49:49.386Z,56.33
2023-02-14T07:52:16.147Z,64.60
2023-02-14T07:54:43.016Z,66.30
2023-02-14T07:57:09.759Z,60.27
2023-02-14T07:59:36.416Z,59.60
2023-02-14T08:02:03.517Z,63.63
2023-02-14T08:04:32.775Z,70.50
2023-02-14T08:07:00.172Z,70.33
2023-02-14T08:09:26.801Z,64.03
2023-02-14T08:12:16.513Z,71.33
2023-02-14T08:14:44.027Z,73.23
2023-02-14T08:17:13.268Z,72.70
2023-02-14T08:19:40.389Z,81.73
2023-02-14T08:22:07.535Z,74.40
2023-02-14T08:24:34.350Z,84.37
2023-02-14T08:27:01.019Z,89.63
2023-02-14T08:29:27.681Z,94.47
2023-02-14T08:31:54.455Z,93.87
2023-02-14T08:34:21.163Z,97.17
2023-02-14T08:36:47.888Z,91.33
2023-02-14T08:39:15.171Z,87.67
2023-02-14T08:41:41.928Z,92.70
2023-02-14T08:44:08.603Z,97.97
2023-02-14T08:46:35.614Z,102.03
2023-02-14T08:49:02.314Z,101.30
2023-02-14T08:51:29.168Z,108.07
2023-02-14T08:53:56.136Z,114.37
2023-02-14T08:56:22.936Z,114.83
2023-02-14T08:58:53.111Z,109.00
2023-02-14T09:01:20.332Z,127.27
2023-02-14T09:03:47.404Z,128.33
2023-02-14T09:06:17.216Z,129.43
2023-02-14T09:08:44.934Z,122.03
2023-02-14T09:11:22.200Z,136.73
2023-02-14T09:13:51.494Z,132.37
2023-02-14T09:16:19.158Z,126.73
2023-02-14T09:18:47.516Z,130.80
2023-02-14T09:21:17.314Z,138.00
2023-02-14T09:23:44.164Z,128.73
2023-02-14T09:26:12.692Z,127.67
2023-02-14T09:28:39.648Z,126.80
2023-02-14T09:31:14.676Z,139.73
2023-02-14T09:33:42.845Z,133.30
2023-02-14T09:36:12.515Z,135.40
2023-02-14T09:38:39.696Z,127.53
2023-02-14T09:41:08.759Z,125.83
2023-02-14T09:43:54.764Z,123.30
2023-02-14T09:46:24.601Z,124.87
2023-02-14T09:48:53.257Z,129.50
2023-02-14T09:51:23.421Z,118.57
2023-02-14T09:54:05.725Z,123.70
2023-02-14T09:56:56.081Z,118.93
2023-02-14T09:59:49.997Z,119.03
2023-02-14T10:02:29.223Z,117.97
2023-02-14T10:05:18.878Z,125.63
2023-02-14T10:08:23.208Z,125.60
2023-02-14T10:11:08.660Z,132.03
2023-02-14T10:13:40.550Z,128.53
2023-02-14T10:16:28.223Z,111.97
2023-02-14T10:19:21.292Z,115.43
2023-02-14T10:21:50.773Z,107.37
2023-02-14T10:24:52.963Z,108.17
2023-02-14T10:27:22.389Z,96.73
2023-02-14T10:29:49.171Z,117.73
2023-02-14T10:32:22.097Z,111.07
2023-02-14T10:34:51.234Z,98.60
2023-02-14T10:37:20.606Z,106.63
2023-02-14T10:40:02.894Z,93.00
2023-02-14T10:43:00.321Z,103.57
2023-02-14T10:45:47.416Z,97.27
2023-02-14T10:48:55.138Z,98.30
2023-02-14T10:51:33.373Z,88.33
2023-02-14T10:54:21.685Z,85.53
2023-02-14T10:57:02.780Z,96.77
2023-02-14T10:59:39.285Z,79.80
2023-02-14T11:02:09.875Z,78.13
2023-02-14T11:04:36.669Z,73.90
2023-02-14T11:07:03.347Z,78.47
2023-02-14T11:09:30.046Z,78.53
2023-02-14T11:11:59.870Z,84.43
2023-02-14T11:14:29.966Z,72.63
2023-02-14T11:16:59.130Z,77.83
2023-02-14T11:19:36.067Z,69.40
2023-02-14T11:22:04.326Z,76.57
2023-02-14T11:24:36.543Z,63.23
2023-02-14T11:27:14.406Z,64.70
2023-02-14T11:29:41.035Z,65.30
2023-02-14T11:32:10.700Z,54.00
2023-02-14T11:34:45.009Z,67.70
2023-02-14T11:37:25.098Z,55.47
2023-02-14T11:39:55.044Z,54.27
2023-02-14T11:42:40.263Z,52.03
2023-02-14T11:45:07.853Z,59.73
2023-02-14T11:47:42.868Z,50.77
2023-02-14T11:50:24.674Z,50.60
2023-02-14T11:52:54.025Z,46.97
2023-02-14T11:55:30.089Z,51.07
2023-02-14T11:57:57.959Z,47.97
2023-02-14T12:00:26.995Z,48.50
2023-02-14T12:02:55.637Z,46.50
2023-02-14T12:05:44.734Z,46.07
2023-02-14T12:08:12.103Z,43.70
2023-02-14T12:10:40.078Z,39.13
2023-02-14T12:13:09.474Z,47.07
2023-02-14T12:15:54.690Z,44.53
2023-02-14T12:18:45.288Z,43.83
2023-02-14T12:21:25.179Z,43.27
2023-02-14T12:24:08.012Z,40.07
2023-02-14T12:27:00.670Z,42.50
2023-02-14T12:29:36.266Z,38.17
2023-02-14T12:32:14.571Z,43.90
2023-02-14T12:34:41.317Z,43.33
2023-02-14T12:37:29.435Z,42.07
2023-02-14T12:40:05.281Z,38.60
2023-02-14T12:42:41.281Z,40.20
2023-02-14T12:45:37.306Z,38.60
2023-02-14T12:48:39.090Z,40.03
2023-02-14T12:51:26.484Z,37.70
2023-02-14T12:53:58.764Z,39.60
2023-02-14T12:56:42.125Z,36.37
2023-02-14T12:59:20.729Z,35.13
2023-02-14T13:02:18.003Z,39.23
2023-02-14T13:04:59.568Z,38.80
2023-02-14T13:07:54.733Z,36.73
2023-02-14T13:10:33.503Z,33.40
2023-02-14T13:13:24.717Z,37.60
2023-02-14T13:16:09.981Z,35.00
2023-02-14T13:18:58.555Z,39.03
2023-02-14T13:21:29.717Z,37.07
2023-02-14T13:24:13.532Z,36.73
2023-02-14T13:26:43.199Z,39.07
2023-02-14T13:29:23.600Z,42.33
2023-02-14T13:31:53.805Z,33.43
2023-02-14T13:34:23.583Z,34.73
2023-02-14T13:36:50.668Z,35.57
2023-02-14T13:39:44.071Z,36.83
2023-02-14T13:42:11.457Z,34.47
2023-02-14T13:44:50.102Z,30.87
2023-02-14T13:47:24.838Z,38.07
2023-02-14T13:50:02.267Z,36.87
2023-02-14T13:52:58.359Z,31.40
2023-02-14T13:55:36.158Z,37.43
2023-02-14T13:58:07.076Z,29.63
2023-02-14T14:00:42.139Z,33.13
2023-02-14T14:03:28.795Z,33.57
2023-02-14T14:06:06.354Z,33.17
2023-02-14T14:08:52.276Z,36.73
2023-02-14T14:11:21.935Z,27.50
2023-02-14T14:13:55.784Z,33.40
2023-02-14T14:16:27.914Z,27.27
2023-02-14T14:18:57.446Z,29.30
2023-02-14T14:21:26.988Z,31.10
2023-02-14T14:24:28.982Z,38.00
2023-02-14T14:27:06.186Z,38.07
2023-02-14T14:30:28.457Z,32.70
2023-02-14T14:32:55.221Z,29.93
2023-02-14T14:35:24.856Z,32.93
2023-02-14T14:37:57.275Z,30.80
2023-02-14T14:40:37.092Z,30.63
2023-02-14T14:43:12.114Z,28.93
2023-02-14T14:45:40.750Z,29.73
2023-02-14T14:48:12.466Z,32.07
2023-02-14T14:50:47.318Z,29.20
2023-02-14T14:53:44.423Z,33.67
2023-02-14T14:56:20.944Z,26.73
2023-02-14T14:58:47.982Z,30.73
2023-02-14T15:01:37.722Z,29.17
2023-02-14T15:04:28.828Z,31.53
2023-02-14T15:07:37.827Z,27.83
2023-02-14T15:10:21.854Z,30.50
2023-02-14T15:13:08.693Z,26.17
2023-02-14T15:15:35.824Z,29.97
2023-02-14T15:18:12.602Z,31.70
2023-02-14T15:20:40.651Z,27.47
2023-02-14T15:23:07.910Z,28.53
2023-02-14T15:25:37.805Z,28.73
2023-02-14T15:28:04.688Z,31.23
2023-02-14T15:30:38.959Z,28.33
2023-02-14T15:33:07.147Z,27.50
2023-02-14T15:35:38.972Z,27.70
2023-02-14T15:38:07.347Z,31.20
2023-02-14T15:40:35.694Z,25.60
2023-02-14T15:43:33.042Z,30.13
2023-02-14T15:46:15.786Z,30.50
2023-02-14T15:48:42.966Z,30.67
2023-02-14T15:51:16.621Z,31.67
2023-02-14T15:53:48.678Z,30.00
2023-02-14T15:56:26.150Z,31.93
2023-02-14T15:59:02.546Z,32.30
2023-02-14T16:01:31.899Z,29.80
2023-02-14T16:04:01.761Z,31.50
2023-02-14T16:06:44.456Z,34.53
2023-02-14T16:09:28.728Z,32.00
2023-02-14T16:11:55.577Z,29.53
2023-02-14T16:14:38.113Z,29.43
2023-02-14T16:17:06.820Z,33.30
2023-02-14T16:19:37.438Z,30.73
2023-02-14T16:22:04.924Z,31.57
2023-02-14T16:24:31.723Z,31.27
2023-02-14T16:26:58.508Z,31.80
2023-02-14T16:29:25.294Z,34.93
2023-02-14T16:32:14.777Z,33.40
2023-02-14T16:34:41.168Z,33.70
2023-02-14T16:37:32.492Z,30.67
2023-02-14T16:40:01.534Z,30.67
2023-02-14T16:42:28.711Z,33.30
2023-02-14T16:44:55.460Z,30.87
2023-02-14T16:47:22.500Z,34.40
2023-02-14T16:49:50.753Z,34.80
2023-02-14T16:52:26.031Z,33.33
2023-02-14T16:54:53.474Z,40.57
2023-02-14T16:57:32.063Z,36.03
2023-02-14T16:59:58.861Z,32.33
2023-02-14T17:02:28.895Z,37.73
2023-02-14T17:04:56.140Z,36.37
2023-02-14T17:07:23.500Z,40.60
2023-02-14T17:09:55.102Z,36.63
2023-02-14T17:12:27.395Z,35.83
2023-02-14T17:14:56.176Z,36.63
2023-02-14T17:17:23.013Z,38.90
2023-02-14T17:19:52.551Z,38.33
2023-02-14T17:22:19.781Z,40.63
2023-02-14T17:24:46.505Z,42.30
2023-02-14T17:27:13.338Z,41.77
2023-02-14T17:29:40.143Z,39.70
2023-02-14T17:32:06.923Z,40.27
2023-02-14T17:34:33.923Z,40.40
2023-02-14T17:37:00.628Z,41.60
2023-02-14T17:39:27.785Z,41.57
2023-02-14T17:41:56.639Z,42.80
2023-02-14T17:44:23.657Z,44.03
2023-02-14T17:46:50.645Z,37.83
2023-02-14T17:49:17.369Z,43.63
2023-02-14T17:51:44.141Z,41.90
2023-02-14T17:54:12.186Z,40.53
2023-02-14T17:56:38.972Z,43.90
2023-02-14T17:59:05.656Z,42.80
2023-02-14T18:01:34.493Z,42.83
2023-02-14T18:04:01.313Z,43.80
2023-02-14T18:06:28.262Z,43.13
2023-02-14T18:08:57.959Z,49.33
2023-02-14T18:11:26.631Z,49.50
2023-02-14T18:13:55.333Z,45.97
2023-02-14T18:16:22.615Z,46.40
2023-02-14T18:18:49.461Z,48.80
2023-02-14T18:21:20.199Z,49.00
2023-02-14T18:23:47.362Z,46.87
2023-02-14T18:26:16.452Z,46.53
2023-02-14T18:28:43.168Z,51.47
2023-02-14T18:31:13.067Z,52.17
2023-02-14T18:33:40.053Z,47.13
2023-02-14T18:36:11.807Z,48.03
2023-02-14T18:38:39.437Z,50.93
2023-02-14T18:41:08.080Z,47.40
2023-02-14T18:43:35.654Z,49.37
2023-02-14T18:46:11.718Z,50.27
2023-02-14T18:48:38.970Z,47.43
2023-02-14T18:51:20.909Z,47.47
2023-02-14T18:53:48.385Z,51.37
2023-02-14T18:56:17.789Z,52.07
2023-02-14T18:58:47.959Z,54.77
2023-02-14T19:01:17.846Z,52.37
2023-02-14T19:03:45.386Z,59.27
2023-02-14T19:06:12.958Z,49.57
2023-02-14T19:08:40.644Z,46.87
2023-02-14T19:11:13.203Z,52.27
2023-02-14T19:13:43.777Z,56.87
2023-02-14T19:16:12.444Z,56.57
2023-02-14T19:18:39.817Z,55.90
2023-02-14T19:21:14.952Z,52.87
2023-02-14T19:23:41.896Z,49.07
2023-02-14T19:26:10.380Z,52.70
2023-02-14T19:28:37.264Z,50.30
2023-02-14T19:31:04.431Z,50.40
2023-02-14T19:33:31.300Z,57.20
2023-02-14T19:36:02.243Z,45.97
2023-02-14T19:38:28.982Z,53.33
2023-02-14T19:40:56.828Z,59.08
2023-02-14T19:43:24.078Z,51.70
2023-02-14T19:45:51.053Z,50.63
2023-02-14T19:48:18.166Z,51.73
2023-02-14T19:50:44.991Z,51.23
2023-02-14T19:53:11.717Z,50.60
2023-02-14T19:55:39.895Z,50.07
2023-02-14T19:58:07.254Z,50.50
2023-02-14T20:00:35.086Z,57.27
2023-02-14T20:03:02.775Z,54.53
2023-02-14T20:05:29.482Z,52.83
2023-02-14T20:07:56.343Z,60.23
2023-02-14T20:10:23.010Z,51.90
2023-02-14T20:12:49.776Z,51.87
2023-02-14T20:15:16.666Z,54.30
2023-02-14T20:17:43.405Z,50.80
2023-02-14T20:20:13.640Z,50.63
2023-02-14T20:22:40.988Z,49.43
2023-02-14T20:25:09.021Z,53.13
2023-02-14T20:27:36.397Z,48.13
2023-02-14T20:30:04.052Z,48.50
2023-02-14T20:32:30.723Z,48.17
2023-02-14T20:34:58.040Z,49.87
2023-02-14T20:37:25.507Z,46.03
2023-02-14T20:39:52.213Z,49.03
2023-02-14T20:42:18.922Z,46.67
2023-02-14T20:44:45.697Z,52.07
2023-02-14T20:47:12.383Z,47.63
2023-02-14T20:49:39.960Z,47.30
2023-02-14T20:52:06.624Z,47.23
2023-02-14T20:54:33.299Z,49.57
2023-02-14T20:56:59.948Z,51.83
2023-02-14T20:59:27.288Z,52.47
2023-02-14T21:01:56.491Z,45.87
2023-02-14T21:04:23.860Z,50.30
2023-02-14T21:06:50.538Z,53.37
2023-02-14T21:09:18.663Z,53.67
2023-02-14T21:11:50.235Z,59.57
2023-02-14T21:14:17.419Z,50.77
2023-02-14T21:16:44.363Z,55.07
2023-02-14T21:19:14.397Z,61.77
2023-02-14T21:21:41.109Z,57.37
2023-02-14T21:24:10.880Z,58.67
2023-02-14T21:26:38.505Z,53.27
2023-02-14T21:29:06.385Z,57.00
2023-02-14T21:31:33.841Z,49.93
2023-02-14T21:34:02.045Z,52.47
2023-02-14T21:36:31.584Z,51.67
2023-02-14T21:38:59.509Z,63.40
2023-02-14T21:41:29.348Z,51.93
2023-02-14T21:43:57.292Z,51.10
2023-02-14T21:46:27.488Z,56.17
2023-02-14T21:49:20.817Z,48.40
2023-02-14T21:51:48.027Z,55.63
2023-02-14T21:54:15.599Z,53.87
2023-02-14T21:56:42.880Z,52.43
2023-02-14T21:59:10.323Z,54.93
2023-02-14T22:01:38.982Z,48.27
2023-02-14T22:04:10.269Z,49.90
2023-02-14T22:06:39.262Z,45.17
2023-02-14T22:09:06.821Z,49.57
2023-02-14T22:11:33.916Z,45.17
2023-02-14T22:14:00.672Z,48.20
2023-02-14T22:16:27.458Z,48.07
2023-02-14T22:18:57.257Z,46.07
2023-02-14T22:21:26.794Z,45.93
2023-02-14T22:23:54.852Z,46.90
2023-02-14T22:26:25.729Z,41.50
2023-02-14T22:28:54.018Z,45.13
2023-02-14T22:31:21.032Z,51.13
2023-02-14T22:33:50.297Z,51.03
2023-02-14T22:36:17.122Z,49.23
2023-02-14T22:38:44.069Z,49.03
2023-02-14T22:41:16.173Z,49.47
2023-02-14T22:43:43.091Z,56.43
2023-02-14T22:46:15.267Z,50.83
2023-02-14T22:48:42.061Z,50.80
2023-02-14T22:51:21.137Z,49.63
2023-02-14T22:53:48.733Z,51.40
2023-02-14T22:56:26.124Z,59.90
2023-02-14T22:58:57.919Z,53.43
2023-02-14T23:01:25.573Z,43.53
2023-02-14T23:03:57.212Z,47.90
2023-02-14T23:06:25.412Z,45.27
2023-02-14T23:08:52.560Z,47.23
2023-02-14T23:11:28.108Z,53.77
2023-02-14T23:14:14.054Z,51.60
2023-02-14T23:17:00.055Z,56.77
2023-02-14T23:19:47.958Z,53.23
2023-02-14T23:22:23.236Z,56.03
2023-02-14T23:24:52.061Z,53.20
2023-02-14T23:27:22.043Z,53.47
2023-02-14T23:29:48.936Z,48.00
2023-02-14T23:32:16.290Z,47.63
2023-02-14T23:34:44.509Z,50.80
2023-02-14T23:37:13.815Z,47.97
2023-02-14T23:39:40.981Z,55.53
2023-02-14T23:42:10.954Z,54.30
2023-02-14T23:44:38.041Z,51.57
2023-02-14T23:47:07.204Z,53.73
2023-02-14T23:49:35.367Z,53.83
2023-02-14T23:52:02.377Z,49.30
2023-02-14T23:54:29.522Z,49.70
2023-02-14T23:57:00.115Z,55.07
2023-02-14T23:59:27.012Z,58.57
